sensor_id;sensor_type;location;lat;lon;timestamp;P1;durP1;ratioP1;P2;durP2;ratioP2
62435;SDS011;48480;50.252;18.848;2023-05-02T00:02:32;13.00;;;7.20;;
62435;SDS011;48480;50.252;18.848;2023-05-02T00:05:16;13.70;;;7.60;;
62435;SDS011;48480;50.252;18.848;2023-05-02T00:08:01;12.30;;;6.90;;
62435;SDS011;48480;50.252;18.848;2023-05-02T00:10:45;12.20;;;7.50;;
62435;SDS011;48480;50.252;18.848;2023-05-02T00:13:29;10.50;;;6.80;;
62435;SDS011;48480;50.252;18.848;2023-05-02T00:16:14;11.10;;;7.10;;
62435;SDS011;48480;50.252;18.848;2023-05-02T00:18:59;12.00;;;7.40;;
62435;SDS011;48480;50.252;18.848;2023-05-02T00:21:44;12.80;;;7.40;;
62435;SDS011;48480;50.252;18.848;2023-05-02T00:24:31;13.10;;;7.90;;
62435;SDS011;48480;50.252;18.848;2023-05-02T00:27:16;11.90;;;7.10;;
62435;SDS011;48480;50.252;18.848;2023-05-02T00:30:02;11.60;;;7.20;;
62435;SDS011;48480;50.252;18.848;2023-05-02T00:32:48;11.40;;;7.10;;
62435;SDS011;48480;50.252;18.848;2023-05-02T00:35:32;11.80;;;7.30;;
62435;SDS011;48480;50.252;18.848;2023-05-02T00:38:17;14.60;;;8.10;;
62435;SDS011;48480;50.252;18.848;2023-05-02T00:41:01;11.80;;;7.90;;
62435;SDS011;48480;50.252;18.848;2023-05-02T00:43:45;12.70;;;8.60;;
62435;SDS011;48480;50.252;18.848;2023-05-02T00:46:29;21.00;;;8.90;;
62435;SDS011;48480;50.252;18.848;2023-05-02T00:49:14;15.00;;;8.40;;
62435;SDS011;48480;50.252;18.848;2023-05-02T00:51:59;11.20;;;7.50;;
62435;SDS011;48480;50.252;18.848;2023-05-02T00:54:43;13.70;;;7.80;;
62435;SDS011;48480;50.252;18.848;2023-05-02T00:57:28;11.10;;;7.60;;
62435;SDS011;48480;50.252;18.848;2023-05-02T01:00:13;10.50;;;7.80;;
62435;SDS011;48480;50.252;18.848;2023-05-02T01:03:04;12.80;;;7.70;;
62435;SDS011;48480;50.252;18.848;2023-05-02T01:15:07;14.00;;;8.10;;
62435;SDS011;48480;50.252;18.848;2023-05-02T01:17:59;13.50;;;8.90;;
62435;SDS011;48480;50.252;18.848;2023-05-02T01:20:45;14.70;;;8.60;;
62435;SDS011;48480;50.252;18.848;2023-05-02T01:29:28;14.90;;;8.40;;
62435;SDS011;48480;50.252;18.848;2023-05-02T01:32:15;13.20;;;7.70;;
62435;SDS011;48480;50.252;18.848;2023-05-02T01:35:01;11.60;;;7.90;;
62435;SDS011;48480;50.252;18.848;2023-05-02T01:37:49;14.10;;;8.50;;
62435;SDS011;48480;50.252;18.848;2023-05-02T01:40:36;13.50;;;8.60;;
62435;SDS011;48480;50.252;18.848;2023-05-02T01:43:22;15.60;;;8.30;;
62435;SDS011;48480;50.252;18.848;2023-05-02T01:46:08;11.80;;;8.20;;
62435;SDS011;48480;50.252;18.848;2023-05-02T01:48:54;14.80;;;8.30;;
62435;SDS011;48480;50.252;18.848;2023-05-02T01:51:45;14.70;;;7.90;;
62435;SDS011;48480;50.252;18.848;2023-05-02T01:54:32;14.60;;;7.90;;
62435;SDS011;48480;50.252;18.848;2023-05-02T01:57:18;13.70;;;8.30;;
62435;SDS011;48480;50.252;18.848;2023-05-02T02:00:03;12.90;;;8.20;;
62435;SDS011;48480;50.252;18.848;2023-05-02T02:02:56;14.60;;;9.00;;
62435;SDS011;48480;50.252;18.848;2023-05-02T02:05:41;17.80;;;10.40;;
62435;SDS011;48480;50.252;18.848;2023-05-02T02:08:26;14.10;;;8.60;;
62435;SDS011;48480;50.252;18.848;2023-05-02T02:11:10;13.90;;;9.30;;
62435;SDS011;48480;50.252;18.848;2023-05-02T02:14:01;14.00;;;8.90;;
62435;SDS011;48480;50.252;18.848;2023-05-02T02:16:50;16.60;;;9.90;;
62435;SDS011;48480;50.252;18.848;2023-05-02T02:19:40;14.90;;;10.20;;
62435;SDS011;48480;50.252;18.848;2023-05-02T02:22:27;17.00;;;10.70;;
62435;SDS011;48480;50.252;18.848;2023-05-02T02:25:14;14.30;;;10.50;;
62435;SDS011;48480;50.252;18.848;2023-05-02T02:28:00;15.10;;;9.70;;
62435;SDS011;48480;50.252;18.848;2023-05-02T02:30:45;13.20;;;9.70;;
62435;SDS011;48480;50.252;18.848;2023-05-02T02:33:29;17.40;;;8.70;;
62435;SDS011;48480;50.252;18.848;2023-05-02T02:36:18;14.60;;;8.90;;
62435;SDS011;48480;50.252;18.848;2023-05-02T02:42:10;13.70;;;8.00;;
62435;SDS011;48480;50.252;18.848;2023-05-02T02:48:32;9.30;;;6.70;;
62435;SDS011;48480;50.252;18.848;2023-05-02T02:51:27;12.70;;;8.00;;
62435;SDS011;48480;50.252;18.848;2023-05-02T02:54:17;13.30;;;8.10;;
62435;SDS011;48480;50.252;18.848;2023-05-02T02:57:13;15.00;;;8.00;;
62435;SDS011;48480;50.252;18.848;2023-05-02T03:00:05;12.00;;;8.10;;
62435;SDS011;48480;50.252;18.848;2023-05-02T03:02:54;12.50;;;8.00;;
62435;SDS011;48480;50.252;18.848;2023-05-02T03:05:39;12.00;;;7.80;;
62435;SDS011;48480;50.252;18.848;2023-05-02T03:08:27;12.00;;;8.10;;
62435;SDS011;48480;50.252;18.848;2023-05-02T03:11:10;15.50;;;8.70;;
62435;SDS011;48480;50.252;18.848;2023-05-02T03:13:54;16.30;;;8.70;;
62435;SDS011;48480;50.252;18.848;2023-05-02T03:16:39;13.00;;;8.20;;
62435;SDS011;48480;50.252;18.848;2023-05-02T03:19:23;13.60;;;8.90;;
62435;SDS011;48480;50.252;18.848;2023-05-02T03:22:08;18.90;;;9.10;;
62435;SDS011;48480;50.252;18.848;2023-05-02T03:24:53;14.00;;;8.30;;
62435;SDS011;48480;50.252;18.848;2023-05-02T03:27:37;13.70;;;8.60;;
62435;SDS011;48480;50.252;18.848;2023-05-02T03:30:21;11.50;;;8.40;;
62435;SDS011;48480;50.252;18.848;2023-05-02T03:33:05;15.10;;;8.70;;
62435;SDS011;48480;50.252;18.848;2023-05-02T03:35:51;13.50;;;8.30;;
62435;SDS011;48480;50.252;18.848;2023-05-02T03:38:35;15.50;;;8.00;;
62435;SDS011;48480;50.252;18.848;2023-05-02T03:41:20;12.50;;;7.90;;
62435;SDS011;48480;50.252;18.848;2023-05-02T03:44:04;11.50;;;8.10;;
62435;SDS011;48480;50.252;18.848;2023-05-02T03:46:49;15.20;;;8.50;;
62435;SDS011;48480;50.252;18.848;2023-05-02T03:49:33;13.00;;;8.30;;
62435;SDS011;48480;50.252;18.848;2023-05-02T03:52:17;12.90;;;8.00;;
62435;SDS011;48480;50.252;18.848;2023-05-02T03:55:01;14.80;;;8.60;;
62435;SDS011;48480;50.252;18.848;2023-05-02T03:57:46;11.90;;;7.40;;
62435;SDS011;48480;50.252;18.848;2023-05-02T04:00:30;13.40;;;8.40;;
62435;SDS011;48480;50.252;18.848;2023-05-02T04:03:15;13.50;;;8.60;;
62435;SDS011;48480;50.252;18.848;2023-05-02T04:05:59;15.60;;;8.20;;
62435;SDS011;48480;50.252;18.848;2023-05-02T04:08:43;13.50;;;8.60;;
62435;SDS011;48480;50.252;18.848;2023-05-02T04:11:27;12.90;;;8.90;;
62435;SDS011;48480;50.252;18.848;2023-05-02T04:14:11;15.80;;;8.30;;
62435;SDS011;48480;50.252;18.848;2023-05-02T04:16:55;9.80;;;7.10;;
62435;SDS011;48480;50.252;18.848;2023-05-02T04:19:40;9.30;;;6.50;;
62435;SDS011;48480;50.252;18.848;2023-05-02T04:22:24;12.50;;;7.40;;
62435;SDS011;48480;50.252;18.848;2023-05-02T04:25:08;12.10;;;7.70;;
62435;SDS011;48480;50.252;18.848;2023-05-02T04:27:52;15.10;;;8.50;;
62435;SDS011;48480;50.252;18.848;2023-05-02T04:30:36;10.50;;;7.30;;
62435;SDS011;48480;50.252;18.848;2023-05-02T04:33:21;16.30;;;7.90;;
62435;SDS011;48480;50.252;18.848;2023-05-02T04:36:08;11.20;;;7.30;;
62435;SDS011;48480;50.252;18.848;2023-05-02T04:38:54;12.00;;;7.30;;
62435;SDS011;48480;50.252;18.848;2023-05-02T04:41:38;13.20;;;7.50;;
62435;SDS011;48480;50.252;18.848;2023-05-02T04:44:22;13.00;;;7.70;;
62435;SDS011;48480;50.252;18.848;2023-05-02T04:47:07;11.20;;;7.00;;
62435;SDS011;48480;50.252;18.848;2023-05-02T04:49:51;13.10;;;6.70;;
62435;SDS011;48480;50.252;18.848;2023-05-02T04:52:38;10.70;;;5.80;;
62435;SDS011;48480;50.252;18.848;2023-05-02T04:55:22;10.70;;;6.30;;
62435;SDS011;48480;50.252;18.848;2023-05-02T04:58:06;10.00;;;6.20;;
62435;SDS011;48480;50.252;18.848;2023-05-02T05:00:50;9.00;;;5.70;;
62435;SDS011;48480;50.252;18.848;2023-05-02T05:03:34;12.90;;;6.90;;
62435;SDS011;48480;50.252;18.848;2023-05-02T05:06:18;11.80;;;6.70;;
62435;SDS011;48480;50.252;18.848;2023-05-02T05:09:02;8.90;;;6.00;;
62435;SDS011;48480;50.252;18.848;2023-05-02T05:11:46;10.70;;;6.20;;
62435;SDS011;48480;50.252;18.848;2023-05-02T05:14:30;12.30;;;6.00;;
62435;SDS011;48480;50.252;18.848;2023-05-02T05:17:14;9.30;;;5.90;;
62435;SDS011;48480;50.252;18.848;2023-05-02T05:19:58;11.70;;;5.80;;
62435;SDS011;48480;50.252;18.848;2023-05-02T05:22:42;13.00;;;6.30;;
62435;SDS011;48480;50.252;18.848;2023-05-02T05:25:26;9.10;;;5.50;;
62435;SDS011;48480;50.252;18.848;2023-05-02T05:28:11;7.80;;;5.10;;
62435;SDS011;48480;50.252;18.848;2023-05-02T05:30:55;10.00;;;5.70;;
62435;SDS011;48480;50.252;18.848;2023-05-02T05:33:40;7.60;;;5.10;;
62435;SDS011;48480;50.252;18.848;2023-05-02T05:36:24;7.00;;;4.50;;
62435;SDS011;48480;50.252;18.848;2023-05-02T05:39:08;7.00;;;4.20;;
62435;SDS011;48480;50.252;18.848;2023-05-02T05:41:53;7.60;;;4.40;;
62435;SDS011;48480;50.252;18.848;2023-05-02T05:44:38;7.00;;;4.00;;
62435;SDS011;48480;50.252;18.848;2023-05-02T05:47:22;5.90;;;3.40;;
62435;SDS011;48480;50.252;18.848;2023-05-02T05:50:06;4.20;;;3.00;;
62435;SDS011;48480;50.252;18.848;2023-05-02T05:52:51;4.60;;;3.10;;
62435;SDS011;48480;50.252;18.848;2023-05-02T05:55:40;4.50;;;2.70;;
62435;SDS011;48480;50.252;18.848;2023-05-02T05:58:24;4.30;;;2.70;;
62435;SDS011;48480;50.252;18.848;2023-05-02T06:01:08;4.60;;;2.40;;
62435;SDS011;48480;50.252;18.848;2023-05-02T06:03:54;5.60;;;2.90;;
62435;SDS011;48480;50.252;18.848;2023-05-02T06:06:42;4.90;;;2.80;;
62435;SDS011;48480;50.252;18.848;2023-05-02T06:09:26;3.70;;;2.80;;
62435;SDS011;48480;50.252;18.848;2023-05-02T06:12:10;8.70;;;3.50;;
62435;SDS011;48480;50.252;18.848;2023-05-02T06:14:54;5.60;;;3.00;;
62435;SDS011;48480;50.252;18.848;2023-05-02T06:17:38;6.20;;;3.00;;
62435;SDS011;48480;50.252;18.848;2023-05-02T06:20:23;5.50;;;2.80;;
62435;SDS011;48480;50.252;18.848;2023-05-02T06:23:07;4.50;;;3.00;;
62435;SDS011;48480;50.252;18.848;2023-05-02T06:25:51;3.70;;;2.60;;
62435;SDS011;48480;50.252;18.848;2023-05-02T06:28:36;4.10;;;2.70;;
62435;SDS011;48480;50.252;18.848;2023-05-02T06:31:20;5.20;;;2.90;;
62435;SDS011;48480;50.252;18.848;2023-05-02T06:34:04;5.60;;;3.20;;
62435;SDS011;48480;50.252;18.848;2023-05-02T06:36:48;4.70;;;2.90;;
62435;SDS011;48480;50.252;18.848;2023-05-02T06:39:38;5.70;;;3.00;;
62435;SDS011;48480;50.252;18.848;2023-05-02T06:42:22;4.00;;;2.80;;
62435;SDS011;48480;50.252;18.848;2023-05-02T06:45:06;5.30;;;3.20;;
62435;SDS011;48480;50.252;18.848;2023-05-02T06:47:50;7.40;;;3.20;;
62435;SDS011;48480;50.252;18.848;2023-05-02T06:50:34;7.30;;;2.80;;
62435;SDS011;48480;50.252;18.848;2023-05-02T06:53:19;5.40;;;2.50;;
62435;SDS011;48480;50.252;18.848;2023-05-02T06:56:04;5.40;;;2.60;;
62435;SDS011;48480;50.252;18.848;2023-05-02T06:58:49;5.80;;;2.80;;
62435;SDS011;48480;50.252;18.848;2023-05-02T07:01:34;4.20;;;2.70;;
62435;SDS011;48480;50.252;18.848;2023-05-02T07:04:18;7.10;;;2.90;;
62435;SDS011;48480;50.252;18.848;2023-05-02T07:07:02;5.20;;;2.60;;
62435;SDS011;48480;50.252;18.848;2023-05-02T07:09:47;5.90;;;2.60;;
62435;SDS011;48480;50.252;18.848;2023-05-02T07:12:32;4.50;;;2.70;;
62435;SDS011;48480;50.252;18.848;2023-05-02T07:15:17;3.90;;;2.20;;
62435;SDS011;48480;50.252;18.848;2023-05-02T07:18:04;5.50;;;2.50;;
62435;SDS011;48480;50.252;18.848;2023-05-02T07:20:48;5.30;;;2.40;;
62435;SDS011;48480;50.252;18.848;2023-05-02T07:23:40;3.50;;;2.10;;
62435;SDS011;48480;50.252;18.848;2023-05-02T07:26:38;5.40;;;2.30;;
62435;SDS011;48480;50.252;18.848;2023-05-02T07:29:30;4.10;;;1.80;;
62435;SDS011;48480;50.252;18.848;2023-05-02T07:32:19;4.00;;;2.00;;
62435;SDS011;48480;50.252;18.848;2023-05-02T07:35:27;5.10;;;2.10;;
62435;SDS011;48480;50.252;18.848;2023-05-02T07:38:11;3.60;;;1.90;;
62435;SDS011;48480;50.252;18.848;2023-05-02T07:40:58;3.20;;;1.90;;
62435;SDS011;48480;50.252;18.848;2023-05-02T07:43:42;3.80;;;1.70;;
62435;SDS011;48480;50.252;18.848;2023-05-02T07:46:32;3.10;;;1.90;;
62435;SDS011;48480;50.252;18.848;2023-05-02T07:49:21;3.50;;;2.00;;
62435;SDS011;48480;50.252;18.848;2023-05-02T07:52:06;8.70;;;2.30;;
62435;SDS011;48480;50.252;18.848;2023-05-02T07:54:52;3.50;;;1.90;;
62435;SDS011;48480;50.252;18.848;2023-05-02T07:57:39;5.30;;;1.90;;
62435;SDS011;48480;50.252;18.848;2023-05-02T08:00:23;5.70;;;1.90;;
62435;SDS011;48480;50.252;18.848;2023-05-02T08:03:14;5.40;;;2.00;;
62435;SDS011;48480;50.252;18.848;2023-05-02T08:06:16;7.10;;;1.90;;
62435;SDS011;48480;50.252;18.848;2023-05-02T08:09:01;4.00;;;1.80;;
62435;SDS011;48480;50.252;18.848;2023-05-02T08:11:46;4.00;;;1.60;;
62435;SDS011;48480;50.252;18.848;2023-05-02T08:14:31;5.00;;;1.60;;
62435;SDS011;48480;50.252;18.848;2023-05-02T08:17:16;2.70;;;1.80;;
62435;SDS011;48480;50.252;18.848;2023-05-02T08:20:00;3.80;;;1.90;;
62435;SDS011;48480;50.252;18.848;2023-05-02T08:22:57;3.80;;;1.60;;
62435;SDS011;48480;50.252;18.848;2023-05-02T08:25:57;6.20;;;2.20;;
62435;SDS011;48480;50.252;18.848;2023-05-02T08:28:44;3.50;;;2.30;;
62435;SDS011;48480;50.252;18.848;2023-05-02T08:31:31;2.90;;;1.90;;
62435;SDS011;48480;50.252;18.848;2023-05-02T08:34:17;5.80;;;2.20;;
62435;SDS011;48480;50.252;18.848;2023-05-02T08:37:06;4.40;;;2.20;;
62435;SDS011;48480;50.252;18.848;2023-05-02T08:40:00;5.70;;;2.00;;
62435;SDS011;48480;50.252;18.848;2023-05-02T08:42:48;4.00;;;2.10;;
62435;SDS011;48480;50.252;18.848;2023-05-02T08:45:42;8.10;;;2.20;;
62435;SDS011;48480;50.252;18.848;2023-05-02T08:48:36;3.50;;;2.10;;
62435;SDS011;48480;50.252;18.848;2023-05-02T08:51:22;4.00;;;2.10;;
62435;SDS011;48480;50.252;18.848;2023-05-02T08:54:08;4.20;;;2.30;;
62435;SDS011;48480;50.252;18.848;2023-05-02T08:56:56;5.30;;;2.00;;
62435;SDS011;48480;50.252;18.848;2023-05-02T08:59:49;5.20;;;2.30;;
62435;SDS011;48480;50.252;18.848;2023-05-02T09:05:45;5.40;;;2.10;;
62435;SDS011;48480;50.252;18.848;2023-05-02T09:08:43;3.80;;;2.40;;
62435;SDS011;48480;50.252;18.848;2023-05-02T09:11:28;3.20;;;2.20;;
62435;SDS011;48480;50.252;18.848;2023-05-02T09:14:13;6.10;;;2.50;;
62435;SDS011;48480;50.252;18.848;2023-05-02T09:16:58;4.50;;;2.50;;
62435;SDS011;48480;50.252;18.848;2023-05-02T09:19:44;5.60;;;2.60;;
62435;SDS011;48480;50.252;18.848;2023-05-02T09:22:29;4.30;;;2.30;;
62435;SDS011;48480;50.252;18.848;2023-05-02T09:25:14;5.60;;;2.70;;
62435;SDS011;48480;50.252;18.848;2023-05-02T09:27:59;3.80;;;2.50;;
62435;SDS011;48480;50.252;18.848;2023-05-02T09:30:45;4.20;;;2.60;;
62435;SDS011;48480;50.252;18.848;2023-05-02T09:33:32;5.10;;;2.70;;
62435;SDS011;48480;50.252;18.848;2023-05-02T09:36:18;5.80;;;3.00;;
62435;SDS011;48480;50.252;18.848;2023-05-02T09:42:14;3.90;;;2.90;;
62435;SDS011;48480;50.252;18.848;2023-05-02T09:45:24;4.50;;;3.10;;
62435;SDS011;48480;50.252;18.848;2023-05-02T09:48:09;3.30;;;2.90;;
62435;SDS011;48480;50.252;18.848;2023-05-02T09:51:10;4.00;;;3.30;;
62435;SDS011;48480;50.252;18.848;2023-05-02T09:54:03;8.10;;;3.30;;
62435;SDS011;48480;50.252;18.848;2023-05-02T09:57:40;5.70;;;3.10;;
62435;SDS011;48480;50.252;18.848;2023-05-02T10:04:22;4.80;;;3.10;;
62435;SDS011;48480;50.252;18.848;2023-05-02T10:10:23;4.30;;;3.50;;
62435;SDS011;48480;50.252;18.848;2023-05-02T10:13:11;12.10;;;4.50;;
62435;SDS011;48480;50.252;18.848;2023-05-02T10:16:00;5.90;;;3.70;;
62435;SDS011;48480;50.252;18.848;2023-05-02T10:19:11;6.50;;;3.80;;
62435;SDS011;48480;50.252;18.848;2023-05-02T10:22:17;5.40;;;3.70;;
62435;SDS011;48480;50.252;18.848;2023-05-02T10:25:14;5.50;;;3.60;;
62435;SDS011;48480;50.252;18.848;2023-05-02T10:28:29;4.00;;;3.60;;
62435;SDS011;48480;50.252;18.848;2023-05-02T10:31:17;4.60;;;3.70;;
62435;SDS011;48480;50.252;18.848;2023-05-02T10:34:09;5.90;;;3.90;;
62435;SDS011;48480;50.252;18.848;2023-05-02T10:37:09;5.30;;;4.00;;
62435;SDS011;48480;50.252;18.848;2023-05-02T10:40:06;5.80;;;3.70;;
62435;SDS011;48480;50.252;18.848;2023-05-02T10:43:02;6.30;;;4.40;;
62435;SDS011;48480;50.252;18.848;2023-05-02T10:45:57;6.50;;;4.60;;
62435;SDS011;48480;50.252;18.848;2023-05-02T10:52:01;6.40;;;4.40;;
62435;SDS011;48480;50.252;18.848;2023-05-02T10:55:17;6.50;;;4.40;;
62435;SDS011;48480;50.252;18.848;2023-05-02T11:00:51;7.20;;;5.40;;
62435;SDS011;48480;50.252;18.848;2023-05-02T11:13:50;5.40;;;4.20;;
62435;SDS011;48480;50.252;18.848;2023-05-02T11:22:31;7.00;;;4.70;;
62435;SDS011;48480;50.252;18.848;2023-05-02T11:25:28;9.00;;;4.90;;
62435;SDS011;48480;50.252;18.848;2023-05-02T11:34:15;7.50;;;4.90;;
62435;SDS011;48480;50.252;18.848;2023-05-02T11:36:59;6.40;;;5.50;;
62435;SDS011;48480;50.252;18.848;2023-05-02T11:39:43;14.60;;;6.20;;
62435;SDS011;48480;50.252;18.848;2023-05-02T11:42:30;8.10;;;5.70;;
62435;SDS011;48480;50.252;18.848;2023-05-02T11:45:15;6.80;;;5.10;;
62435;SDS011;48480;50.252;18.848;2023-05-02T11:48:00;7.00;;;5.20;;
62435;SDS011;48480;50.252;18.848;2023-05-02T11:50:49;9.90;;;5.20;;
62435;SDS011;48480;50.252;18.848;2023-05-02T11:53:38;7.20;;;5.00;;
62435;SDS011;48480;50.252;18.848;2023-05-02T11:56:27;6.50;;;5.00;;
62435;SDS011;48480;50.252;18.848;2023-05-02T11:59:11;12.40;;;5.50;;
62435;SDS011;48480;50.252;18.848;2023-05-02T12:01:56;9.80;;;5.70;;
62435;SDS011;48480;50.252;18.848;2023-05-02T12:04:41;9.60;;;5.50;;
62435;SDS011;48480;50.252;18.848;2023-05-02T12:07:46;10.30;;;6.00;;
62435;SDS011;48480;50.252;18.848;2023-05-02T12:10:36;7.10;;;5.10;;
62435;SDS011;48480;50.252;18.848;2023-05-02T12:13:21;5.90;;;5.20;;
62435;SDS011;48480;50.252;18.848;2023-05-02T12:16:07;7.00;;;5.20;;
62435;SDS011;48480;50.252;18.848;2023-05-02T12:18:51;7.20;;;4.40;;
62435;SDS011;48480;50.252;18.848;2023-05-02T12:21:35;6.60;;;4.60;;
62435;SDS011;48480;50.252;18.848;2023-05-02T12:24:19;5.60;;;4.40;;
62435;SDS011;48480;50.252;18.848;2023-05-02T12:27:08;7.80;;;4.70;;
62435;SDS011;48480;50.252;18.848;2023-05-02T12:29:59;5.30;;;4.60;;
62435;SDS011;48480;50.252;18.848;2023-05-02T12:32:44;12.70;;;4.70;;
62435;SDS011;48480;50.252;18.848;2023-05-02T12:35:30;5.30;;;4.00;;
62435;SDS011;48480;50.252;18.848;2023-05-02T12:38:15;4.40;;;3.60;;
62435;SDS011;48480;50.252;18.848;2023-05-02T12:41:01;8.10;;;3.50;;
62435;SDS011;48480;50.252;18.848;2023-05-02T12:43:46;5.70;;;3.10;;
62435;SDS011;48480;50.252;18.848;2023-05-02T12:46:32;3.10;;;2.40;;
62435;SDS011;48480;50.252;18.848;2023-05-02T12:49:18;5.00;;;2.40;;
62435;SDS011;48480;50.252;18.848;2023-05-02T12:51:56;5.40;;;3.70;;
62435;SDS011;48480;50.252;18.848;2023-05-02T12:54:41;5.70;;;3.00;;
62435;SDS011;48480;50.252;18.848;2023-05-02T12:57:25;6.10;;;3.20;;
62435;SDS011;48480;50.252;18.848;2023-05-02T13:00:10;4.90;;;3.10;;
62435;SDS011;48480;50.252;18.848;2023-05-02T13:02:55;4.50;;;3.10;;
62435;SDS011;48480;50.252;18.848;2023-05-02T13:05:39;4.30;;;3.00;;
62435;SDS011;48480;50.252;18.848;2023-05-02T13:08:24;4.30;;;2.90;;
62435;SDS011;48480;50.252;18.848;2023-05-02T13:11:08;4.60;;;2.70;;
62435;SDS011;48480;50.252;18.848;2023-05-02T13:13:52;3.60;;;2.60;;
62435;SDS011;48480;50.252;18.848;2023-05-02T13:16:36;4.40;;;2.50;;
62435;SDS011;48480;50.252;18.848;2023-05-02T13:19:20;3.60;;;2.60;;
62435;SDS011;48480;50.252;18.848;2023-05-02T13:22:05;3.70;;;2.70;;
62435;SDS011;48480;50.252;18.848;2023-05-02T13:24:49;4.00;;;2.80;;
62435;SDS011;48480;50.252;18.848;2023-05-02T13:27:34;3.20;;;2.50;;
62435;SDS011;48480;50.252;18.848;2023-05-02T13:30:18;3.30;;;2.40;;
62435;SDS011;48480;50.252;18.848;2023-05-02T13:33:02;3.20;;;2.20;;
62435;SDS011;48480;50.252;18.848;2023-05-02T13:35:46;4.50;;;2.50;;
62435;SDS011;48480;50.252;18.848;2023-05-02T13:38:30;3.10;;;1.90;;
62435;SDS011;48480;50.252;18.848;2023-05-02T13:41:24;2.50;;;1.80;;
62435;SDS011;48480;50.252;18.848;2023-05-02T13:44:08;12.80;;;2.60;;
62435;SDS011;48480;50.252;18.848;2023-05-02T13:46:52;8.80;;;2.70;;
62435;SDS011;48480;50.252;18.848;2023-05-02T13:49:37;3.80;;;2.40;;
62435;SDS011;48480;50.252;18.848;2023-05-02T13:52:20;3.80;;;2.40;;
62435;SDS011;48480;50.252;18.848;2023-05-02T13:55:05;6.00;;;2.40;;
62435;SDS011;48480;50.252;18.848;2023-05-02T13:57:49;4.30;;;2.10;;
62435;SDS011;48480;50.252;18.848;2023-05-02T14:00:33;4.00;;;2.00;;
62435;SDS011;48480;50.252;18.848;2023-05-02T14:03:19;2.70;;;1.60;;
62435;SDS011;48480;50.252;18.848;2023-05-02T14:06:05;2.90;;;1.80;;
62435;SDS011;48480;50.252;18.848;2023-05-02T14:08:59;2.30;;;1.60;;
62435;SDS011;48480;50.252;18.848;2023-05-02T14:11:46;2.60;;;1.70;;
62435;SDS011;48480;50.252;18.848;2023-05-02T14:14:35;3.10;;;2.00;;
62435;SDS011;48480;50.252;18.848;2023-05-02T14:17:23;3.00;;;1.60;;
62435;SDS011;48480;50.252;18.848;2023-05-02T14:22:48;3.80;;;2.40;;
62435;SDS011;48480;50.252;18.848;2023-05-02T14:25:34;2.20;;;1.50;;
62435;SDS011;48480;50.252;18.848;2023-05-02T14:28:19;3.10;;;1.80;;
62435;SDS011;48480;50.252;18.848;2023-05-02T14:31:04;3.00;;;1.60;;
62435;SDS011;48480;50.252;18.848;2023-05-02T14:33:57;4.50;;;2.30;;
62435;SDS011;48480;50.252;18.848;2023-05-02T14:36:41;2.40;;;1.90;;
62435;SDS011;48480;50.252;18.848;2023-05-02T14:39:30;3.50;;;2.00;;
62435;SDS011;48480;50.252;18.848;2023-05-02T14:42:15;4.70;;;2.40;;
62435;SDS011;48480;50.252;18.848;2023-05-02T14:44:58;3.50;;;2.20;;
62435;SDS011;48480;50.252;18.848;2023-05-02T14:47:45;3.60;;;2.70;;
62435;SDS011;48480;50.252;18.848;2023-05-02T14:50:30;4.00;;;2.70;;
62435;SDS011;48480;50.252;18.848;2023-05-02T14:53:27;4.90;;;3.50;;
62435;SDS011;48480;50.252;18.848;2023-05-02T14:58:49;5.80;;;4.00;;
62435;SDS011;48480;50.252;18.848;2023-05-02T15:01:33;4.10;;;3.10;;
62435;SDS011;48480;50.252;18.848;2023-05-02T15:04:16;12.80;;;11.50;;
62435;SDS011;48480;50.252;18.848;2023-05-02T15:09:48;5.10;;;3.00;;
62435;SDS011;48480;50.252;18.848;2023-05-02T15:12:36;3.70;;;2.70;;
62435;SDS011;48480;50.252;18.848;2023-05-02T15:15:23;7.40;;;3.00;;
62435;SDS011;48480;50.252;18.848;2023-05-02T15:18:07;6.00;;;3.20;;
62435;SDS011;48480;50.252;18.848;2023-05-02T15:23:27;4.80;;;3.50;;
62435;SDS011;48480;50.252;18.848;2023-05-02T15:26:12;4.30;;;2.90;;
62435;SDS011;48480;50.252;18.848;2023-05-02T15:29:13;5.90;;;3.60;;
62435;SDS011;48480;50.252;18.848;2023-05-02T15:31:58;5.00;;;3.30;;
62435;SDS011;48480;50.252;18.848;2023-05-02T15:34:45;4.00;;;3.20;;
62435;SDS011;48480;50.252;18.848;2023-05-02T15:37:29;6.30;;;3.50;;
62435;SDS011;48480;50.252;18.848;2023-05-02T15:43:11;8.60;;;3.60;;
62435;SDS011;48480;50.252;18.848;2023-05-02T15:45:56;4.90;;;3.10;;
62435;SDS011;48480;50.252;18.848;2023-05-02T15:48:44;4.20;;;2.80;;
62435;SDS011;48480;50.252;18.848;2023-05-02T15:51:33;5.10;;;3.50;;
62435;SDS011;48480;50.252;18.848;2023-05-02T15:54:17;5.20;;;3.50;;
62435;SDS011;48480;50.252;18.848;2023-05-02T15:59:37;5.50;;;3.50;;
62435;SDS011;48480;50.252;18.848;2023-05-02T16:02:21;6.60;;;3.80;;
62435;SDS011;48480;50.252;18.848;2023-05-02T16:05:21;4.70;;;3.10;;
62435;SDS011;48480;50.252;18.848;2023-05-02T16:08:05;6.00;;;3.60;;
62435;SDS011;48480;50.252;18.848;2023-05-02T16:10:47;5.10;;;3.50;;
62435;SDS011;48480;50.252;18.848;2023-05-02T16:13:30;8.80;;;6.10;;
62435;SDS011;48480;50.252;18.848;2023-05-02T16:16:15;7.20;;;5.30;;
62435;SDS011;48480;50.252;18.848;2023-05-02T16:19:15;7.40;;;4.70;;
62435;SDS011;48480;50.252;18.848;2023-05-02T16:21:59;9.40;;;5.70;;
62435;SDS011;48480;50.252;18.848;2023-05-02T16:24:44;8.00;;;6.20;;
62435;SDS011;48480;50.252;18.848;2023-05-02T16:27:29;8.10;;;5.70;;
62435;SDS011;48480;50.252;18.848;2023-05-02T16:33:20;11.60;;;10.00;;
62435;SDS011;48480;50.252;18.848;2023-05-02T16:39:02;8.40;;;6.60;;
62435;SDS011;48480;50.252;18.848;2023-05-02T16:41:46;9.20;;;6.60;;
62435;SDS011;48480;50.252;18.848;2023-05-02T16:44:31;6.80;;;5.50;;
62435;SDS011;48480;50.252;18.848;2023-05-02T16:47:15;7.80;;;5.50;;
62435;SDS011;48480;50.252;18.848;2023-05-02T16:49:59;9.30;;;6.00;;
62435;SDS011;48480;50.252;18.848;2023-05-02T16:52:44;8.80;;;6.20;;
62435;SDS011;48480;50.252;18.848;2023-05-02T16:55:28;10.70;;;7.10;;
62435;SDS011;48480;50.252;18.848;2023-05-02T16:58:12;13.50;;;8.50;;
62435;SDS011;48480;50.252;18.848;2023-05-02T17:00:57;11.50;;;8.20;;
62435;SDS011;48480;50.252;18.848;2023-05-02T17:03:42;9.10;;;6.60;;
62435;SDS011;48480;50.252;18.848;2023-05-02T17:06:27;12.00;;;8.90;;
62435;SDS011;48480;50.252;18.848;2023-05-02T17:09:11;11.60;;;8.50;;
62435;SDS011;48480;50.252;18.848;2023-05-02T17:11:55;12.80;;;8.60;;
62435;SDS011;48480;50.252;18.848;2023-05-02T17:14:41;12.90;;;7.60;;
62435;SDS011;48480;50.252;18.848;2023-05-02T17:17:25;14.00;;;10.70;;
62435;SDS011;48480;50.252;18.848;2023-05-02T17:20:09;11.80;;;8.00;;
62435;SDS011;48480;50.252;18.848;2023-05-02T17:22:54;14.30;;;9.00;;
62435;SDS011;48480;50.252;18.848;2023-05-02T17:25:38;12.20;;;8.40;;
62435;SDS011;48480;50.252;18.848;2023-05-02T17:28:24;11.80;;;7.70;;
62435;SDS011;48480;50.252;18.848;2023-05-02T17:31:11;10.30;;;6.60;;
62435;SDS011;48480;50.252;18.848;2023-05-02T17:33:56;8.70;;;6.40;;
62435;SDS011;48480;50.252;18.848;2023-05-02T17:36:40;10.30;;;7.00;;
62435;SDS011;48480;50.252;18.848;2023-05-02T17:39:24;12.70;;;6.80;;
62435;SDS011;48480;50.252;18.848;2023-05-02T17:42:08;10.40;;;6.70;;
62435;SDS011;48480;50.252;18.848;2023-05-02T17:44:53;9.70;;;7.00;;
62435;SDS011;48480;50.252;18.848;2023-05-02T17:47:37;11.40;;;7.20;;
62435;SDS011;48480;50.252;18.848;2023-05-02T17:50:21;10.20;;;8.00;;